Meteo

Meteo


Dettagli e Storico

Webcam

Webcam in aeroporto – Aggiornata ogni minuto

Osservatorio Meteorologico Cocomaro di Cona – Ferrara

NOAA IMAGE

NOAA

Windy

METAR

Aviation Digital Data Service (ADDS)

Output produced by METARs form (0818 UTC 20 January 2020)
found at http://www.aviationweather.gov/metar/data/
 
METAR text: LIPF 200755Z /////KT CAVOK 03/00 Q1040
Conditions at: LIPF (FERRARA (AUT) , IT) observed 0755 UTC 20 January 2020
Temperature: 3.0°C (37°F)
Dewpoint: 0.0°C (32°F) [RH = 81%]
Pressure (altimeter): 30.71 inches Hg (1040.0 mb)
Winds: missing
Visibility: 6 or more miles (10+ km)
Ceiling: ceiling and visibility are OK
Clouds: unknown
Weather: no significant weather observed at this time

METAR text: LIPE 200750Z 26003KT 4000 BR FEW050 02/01 Q1040
Conditions at: LIPE (BOLOGNA/BORGO (A, IT) observed 0750 UTC 20 January 2020
Temperature: 2.0°C (36°F)
Dewpoint: 1.0°C (34°F) [RH = 93%]
Pressure (altimeter): 30.71 inches Hg (1040.0 mb)
Winds: from the W (260 degrees) at 3 MPH (3 knots; 1.5 m/s)
Visibility: 2.49 miles (4.01 km)
Ceiling: at least 12,000 feet AGL
Clouds: few clouds at 5000 feet AGL
Weather: BR  (mist)

Forecast for: LIPE (BOLOGNA/BORGO (A, IT)
Text: TAF LIPE 200500Z 2006/2106 VRB05KT 9999 FEW020
Forecast period: 0600 UTC 20 January 2020 to 0600 UTC 21 January 2020
Forecast type: FROM: standard forecast or significant change
Winds: variable direction winds at 6 MPH (5 knots; 2.6 m/s)
Visibility: 6 or more miles 10+ km)
Ceiling: at least 12,000 feet AGL
Clouds: few clouds at 2000 feet AGL
Weather: no significant weather forecast for this period

METAR text: LIPX 200750Z 33004KT 310V010 CAVOK 02/M06 Q1040
Conditions at: LIPX (VILLAFRANCA(CV/M, IT) observed 0750 UTC 20 January 2020
Temperature: 2.0°C (36°F)
Dewpoint: -6.0°C (21°F) [RH = 55%]
Pressure (altimeter): 30.71 inches Hg (1040.0 mb)
Winds: from the NNW (330 degrees) at 5 MPH (4 knots; 2.1 m/s)
Visibility: 6 or more miles (10+ km)
Ceiling: ceiling and visibility are OK
Clouds: unknown
Weather: no significant weather observed at this time

Forecast for: LIPX (VILLAFRANCA(CV/M, IT)
Text: TAF LIPX 200500Z 2006/2015 VRB05KT 9999 SCT080
Forecast period: 0600 to 1500 UTC 20 January 2020
Forecast type: FROM: standard forecast or significant change
Winds: variable direction winds at 6 MPH (5 knots; 2.6 m/s)
Visibility: 6 or more miles 10+ km)
Ceiling: at least 12,000 feet AGL
Clouds: scattered clouds at 8000 feet AGL
Weather: no significant weather forecast for this period

METAR text: LIPZ 200750Z 02009KT CAVOK 04/M03 Q1041 NOSIG
Conditions at: LIPZ (VENEZIA/TESSERA , IT) observed 0750 UTC 20 January 2020
Temperature: 4.0°C (39°F)
Dewpoint: -3.0°C (27°F) [RH = 60%]
Pressure (altimeter): 30.74 inches Hg (1041.0 mb)
Winds: from the NNE (20 degrees) at 10 MPH (9 knots; 4.6 m/s)
Visibility: 6 or more miles (10+ km)
Ceiling: ceiling and visibility are OK
Clouds: unknown
Weather: no significant weather observed at this time

Forecast for: LIPZ (VENEZIA/TESSERA , IT)
Text: TAF LIPZ 200500Z 2006/2112 04012KT 9999 FEW060
Forecast period: 0600 to 2200 UTC 20 January 2020
Forecast type: FROM: standard forecast or significant change
Winds: from the NE (40 degrees) at 14 MPH (12 knots; 6.2 m/s)
Visibility: 6 or more miles 10+ km)
Ceiling: at least 12,000 feet AGL
Clouds: few clouds at 6000 feet AGL
Weather: no significant weather forecast for this period
Text: BECMG 2022/2024 VRB05KT
Forecast period: 2200 UTC 20 January 2020 to 1200 UTC 21 January 2020
Forecast type: BECOMING: Conditions expected to become as follows by 0000 UTC 21 January 2020
Winds: variable direction winds at 6 MPH (5 knots; 2.6 m/s)
Visibility: 6 or more miles 10+ km)
Ceiling: at least 12,000 feet AGL
Clouds: few clouds at 6000 feet AGL
Weather: no significant weather forecast for this period